createdAt,value
2019-01-20T00:01:17.692Z,11.20
2019-01-20T00:03:45.634Z,8.85
2019-01-20T00:06:13.552Z,9.60
2019-01-20T00:08:41.479Z,12.98
2019-01-20T00:11:16.359Z,13.03
2019-01-20T00:13:39.177Z,14.45
2019-01-20T00:16:07.433Z,15.45
2019-01-20T00:18:35.729Z,13.53
2019-01-20T00:21:03.773Z,15.05
2019-01-20T00:23:32.985Z,16.07
2019-01-20T00:26:01.009Z,13.00
2019-01-20T00:28:29.021Z,15.53
2019-01-20T00:30:57.117Z,14.83
2019-01-20T00:33:27.087Z,13.78
2019-01-20T00:35:55.384Z,11.75
2019-01-20T00:38:23.477Z,13.20
2019-01-20T00:40:52.657Z,11.83
2019-01-20T00:43:20.746Z,14.13
2019-01-20T00:45:49.748Z,13.25
2019-01-20T00:48:17.812Z,11.78
2019-01-20T00:50:45.883Z,14.18
2019-01-20T00:53:14.471Z,11.90
2019-01-20T00:55:42.538Z,13.85
2019-01-20T00:58:10.612Z,14.93
2019-01-20T01:00:39.199Z,12.98
2019-01-20T01:03:07.267Z,11.43
2019-01-20T01:05:35.238Z,12.20
2019-01-20T01:08:03.894Z,15.63
2019-01-20T01:10:31.993Z,11.12
2019-01-20T01:13:00.578Z,12.07
2019-01-20T01:15:30.159Z,12.35
2019-01-20T01:17:58.566Z,16.73
2019-01-20T01:20:26.820Z,11.53
2019-01-20T01:22:55.121Z,13.72
2019-01-20T01:25:23.197Z,12.80
2019-01-20T01:27:51.144Z,14.25
2019-01-20T01:30:19.338Z,11.45
2019-01-20T01:32:47.287Z,11.43
2019-01-20T01:35:15.272Z,11.25
2019-01-20T01:37:43.344Z,11.73
2019-01-20T01:40:11.313Z,13.30
2019-01-20T01:42:39.383Z,11.83
2019-01-20T01:45:07.335Z,11.05
2019-01-20T01:47:37.364Z,8.50
2019-01-20T01:50:05.034Z,9.00
2019-01-20T01:52:33.106Z,10.85
2019-01-20T01:55:01.079Z,9.95
2019-01-20T01:57:29.518Z,8.95
2019-01-20T01:59:58.758Z,12.33
2019-01-20T02:02:26.709Z,9.65
2019-01-20T02:04:54.897Z,11.35
2019-01-20T02:07:22.958Z,9.28
2019-01-20T02:09:50.941Z,13.05
2019-01-20T02:12:19.011Z,7.47
2019-01-20T02:14:47.185Z,12.07
2019-01-20T02:17:15.262Z,9.43
2019-01-20T02:19:43.329Z,11.95
2019-01-20T02:22:23.590Z,9.55
2019-01-20T02:24:51.560Z,8.65
2019-01-20T02:27:21.210Z,8.88
2019-01-20T02:29:49.312Z,11.70
2019-01-20T02:32:17.410Z,9.33
2019-01-20T02:34:45.369Z,10.32
2019-01-20T02:37:13.321Z,9.65
2019-01-20T02:39:41.703Z,13.10
2019-01-20T02:42:09.802Z,17.30
2019-01-20T02:44:37.958Z,14.10
2019-01-20T02:47:06.053Z,13.95
2019-01-20T02:49:34.097Z,9.88
2019-01-20T02:52:02.057Z,9.50
2019-01-20T02:54:31.548Z,12.58
2019-01-20T02:57:00.176Z,13.80
2019-01-20T02:59:28.251Z,13.95
2019-01-20T03:01:56.195Z,13.62
2019-01-20T03:04:25.620Z,10.63
2019-01-20T03:06:53.793Z,13.38
2019-01-20T03:09:21.764Z,14.87
2019-01-20T03:11:49.840Z,14.55
2019-01-20T03:14:18.214Z,17.20
2019-01-20T03:16:46.267Z,14.03
2019-01-20T03:19:14.359Z,18.37
2019-01-20T03:21:42.541Z,6.28
2019-01-20T03:24:10.483Z,11.35
2019-01-20T03:26:38.446Z,8.00
2019-01-20T03:29:07.773Z,8.55
2019-01-20T03:31:35.743Z,12.03
2019-01-20T03:34:03.709Z,16.60
2019-01-20T03:36:31.678Z,13.88
2019-01-20T03:38:59.652Z,10.85
2019-01-20T03:41:27.621Z,10.80
2019-01-20T03:43:55.896Z,18.98
2019-01-20T03:46:23.849Z,10.98
2019-01-20T03:48:51.842Z,9.45
2019-01-20T03:51:19.906Z,10.05
2019-01-20T03:53:47.867Z,10.53
2019-01-20T03:56:15.845Z,14.03
2019-01-20T03:58:43.997Z,10.28
2019-01-20T04:01:13.547Z,13.03
2019-01-20T04:03:42.622Z,12.25
2019-01-20T04:06:10.588Z,9.23
2019-01-20T04:08:38.847Z,12.82
2019-01-20T04:11:06.938Z,12.75
2019-01-20T04:13:34.984Z,9.20
2019-01-20T04:16:02.955Z,10.63
2019-01-20T04:18:30.967Z,11.73
2019-01-20T04:20:58.901Z,16.15
2019-01-20T04:23:26.865Z,7.33
2019-01-20T04:25:55.064Z,10.48
2019-01-20T04:28:23.317Z,7.53
2019-01-20T04:30:51.907Z,7.37
2019-01-20T04:33:19.969Z,6.65
2019-01-20T04:35:48.064Z,9.83
2019-01-20T04:38:16.057Z,10.75
2019-01-20T04:40:43.981Z,9.33
2019-01-20T04:43:12.078Z,9.23
2019-01-20T04:45:40.020Z,11.85
2019-01-20T04:48:07.911Z,6.75
2019-01-20T04:50:35.957Z,9.33
2019-01-20T04:53:05.742Z,9.53
2019-01-20T04:55:33.743Z,8.43
2019-01-20T04:58:02.247Z,10.23
2019-01-20T05:00:30.322Z,9.80
2019-01-20T05:02:58.396Z,8.13
2019-01-20T05:05:26.639Z,9.28
2019-01-20T05:07:54.638Z,8.83
2019-01-20T05:10:22.814Z,8.90
2019-01-20T05:12:50.873Z,10.15
2019-01-20T05:15:19.166Z,8.65
2019-01-20T05:17:47.110Z,9.30
2019-01-20T05:20:15.210Z,11.43
2019-01-20T05:22:43.276Z,8.00
2019-01-20T05:25:11.220Z,9.85
2019-01-20T05:27:39.390Z,7.37
2019-01-20T05:30:07.385Z,8.43
2019-01-20T05:32:35.560Z,10.93
2019-01-20T05:35:03.501Z,6.97
2019-01-20T05:37:31.500Z,7.92
2019-01-20T05:39:59.470Z,8.18
2019-01-20T05:42:27.745Z,9.40
2019-01-20T05:44:55.691Z,8.93
2019-01-20T05:47:23.682Z,11.45
2019-01-20T05:49:51.653Z,6.83
2019-01-20T05:52:20.032Z,5.92
2019-01-20T05:54:48.206Z,6.12
2019-01-20T05:57:16.278Z,6.25
2019-01-20T05:59:44.166Z,5.10
2019-01-20T06:02:12.094Z,10.18
2019-01-20T06:04:40.187Z,6.05
2019-01-20T06:07:08.267Z,9.00
2019-01-20T06:09:36.227Z,7.10
2019-01-20T06:12:04.302Z,5.80
2019-01-20T06:14:32.271Z,4.95
2019-01-20T06:17:00.319Z,4.83
2019-01-20T06:19:28.520Z,3.50
2019-01-20T06:21:56.485Z,5.40
2019-01-20T06:24:24.532Z,4.35
2019-01-20T06:26:52.627Z,4.95
2019-01-20T06:29:20.679Z,4.55
2019-01-20T06:31:48.874Z,5.40
2019-01-20T06:34:16.843Z,5.35
2019-01-20T06:36:45.017Z,5.50
2019-01-20T06:39:13.089Z,5.92
2019-01-20T06:41:41.161Z,6.80
2019-01-20T06:44:09.238Z,6.60
2019-01-20T06:46:37.304Z,6.08
2019-01-20T06:49:05.359Z,6.25
2019-01-20T06:51:35.273Z,5.00
2019-01-20T06:54:02.928Z,11.08
2019-01-20T06:56:31.026Z,4.95
2019-01-20T06:58:59.004Z,4.85
2019-01-20T07:01:27.274Z,5.10
2019-01-20T07:03:55.242Z,4.62
2019-01-20T07:06:24.188Z,3.87
2019-01-20T07:08:52.614Z,4.80
2019-01-20T07:11:20.769Z,5.30
2019-01-20T07:13:48.671Z,4.15
2019-01-20T07:16:16.706Z,5.62
2019-01-20T07:18:44.727Z,3.95
2019-01-20T07:21:12.975Z,3.83
2019-01-20T07:23:41.664Z,3.80
2019-01-20T07:26:10.644Z,3.75
2019-01-20T07:28:38.622Z,3.87
2019-01-20T07:31:06.593Z,4.17
2019-01-20T07:33:34.662Z,4.83
2019-01-20T07:36:03.022Z,4.20
2019-01-20T07:38:31.112Z,4.20
2019-01-20T07:40:59.187Z,4.08
2019-01-20T07:43:27.259Z,4.37
2019-01-20T07:45:55.435Z,3.70
2019-01-20T07:48:23.400Z,4.08
2019-01-20T07:50:51.584Z,7.45
2019-01-20T07:53:19.548Z,3.90
2019-01-20T07:55:47.417Z,4.03
2019-01-20T07:58:15.484Z,4.65
2019-01-20T08:00:45.096Z,4.40
2019-01-20T08:03:13.075Z,3.90
2019-01-20T08:05:41.004Z,4.17
2019-01-20T08:08:09.001Z,4.20
2019-01-20T08:10:36.970Z,4.05
2019-01-20T08:13:05.250Z,5.42
2019-01-20T08:15:33.190Z,3.72
2019-01-20T08:18:01.183Z,4.08
2019-01-20T08:20:29.156Z,4.35
2019-01-20T08:22:57.155Z,4.03
2019-01-20T08:25:25.196Z,3.90
2019-01-20T08:27:53.175Z,4.40
2019-01-20T08:30:21.239Z,4.08
2019-01-20T08:32:49.520Z,4.58
2019-01-20T08:35:17.588Z,8.78
2019-01-20T08:37:45.555Z,4.58
2019-01-20T08:40:13.494Z,4.10
2019-01-20T08:42:41.600Z,4.45
2019-01-20T08:45:09.538Z,3.92
2019-01-20T08:47:38.020Z,4.22
2019-01-20T08:50:06.204Z,5.45
2019-01-20T08:52:35.199Z,4.03
2019-01-20T08:55:03.185Z,3.62
2019-01-20T08:57:31.858Z,5.15
2019-01-20T08:59:59.837Z,4.47
2019-01-20T09:02:27.807Z,4.78
2019-01-20T09:04:55.858Z,3.58
2019-01-20T09:07:24.055Z,3.87
2019-01-20T09:09:52.126Z,3.08
2019-01-20T09:12:20.095Z,3.47
2019-01-20T09:14:48.148Z,12.23
2019-01-20T09:17:16.134Z,3.42
2019-01-20T09:19:44.413Z,4.22
2019-01-20T09:22:12.468Z,3.90
2019-01-20T09:24:41.502Z,3.42
2019-01-20T09:27:09.448Z,3.00
2019-01-20T09:29:40.918Z,2.80
2019-01-20T09:32:09.399Z,4.03
2019-01-20T09:34:37.372Z,6.33
2019-01-20T09:37:05.532Z,3.77
2019-01-20T09:39:33.702Z,3.85
2019-01-20T09:42:01.972Z,2.90
2019-01-20T09:44:29.934Z,3.02
2019-01-20T09:46:57.911Z,3.00
2019-01-20T09:49:26.279Z,3.37
2019-01-20T09:51:54.355Z,2.92
2019-01-20T09:54:23.914Z,3.17
2019-01-20T09:56:52.251Z,2.90
2019-01-20T09:59:20.305Z,3.60
2019-01-20T10:01:48.580Z,3.00
2019-01-20T10:04:16.755Z,2.90
2019-01-20T10:06:44.933Z,3.12
2019-01-20T10:09:13.023Z,3.95
2019-01-20T10:11:41.081Z,2.83
2019-01-20T10:14:09.270Z,3.60
2019-01-20T10:16:37.425Z,3.05
2019-01-20T10:19:05.620Z,3.33
2019-01-20T10:21:33.687Z,3.02
2019-01-20T10:24:01.876Z,2.83
2019-01-20T10:26:30.934Z,2.50
2019-01-20T10:28:59.031Z,2.50
2019-01-20T10:31:27.104Z,2.62
2019-01-20T10:33:55.150Z,2.52
2019-01-20T10:36:23.248Z,2.85
2019-01-20T10:38:51.297Z,2.70
2019-01-20T10:41:19.261Z,2.62
2019-01-20T10:43:47.441Z,2.67
2019-01-20T10:46:16.633Z,4.25
2019-01-20T10:48:44.957Z,3.22
2019-01-20T10:51:15.195Z,3.12
2019-01-20T10:53:43.208Z,4.05
2019-01-20T10:56:11.507Z,3.10
2019-01-20T10:58:39.679Z,4.30
2019-01-20T11:01:07.958Z,3.95
2019-01-20T11:03:36.014Z,3.67
2019-01-20T11:06:04.098Z,3.30
2019-01-20T11:08:32.252Z,3.05
2019-01-20T11:11:00.449Z,3.40
2019-01-20T11:13:28.703Z,4.25
2019-01-20T11:15:56.896Z,3.80
2019-01-20T11:18:25.156Z,3.70
2019-01-20T11:20:54.997Z,3.67
2019-01-20T11:23:24.404Z,3.90
2019-01-20T11:25:52.506Z,3.83
2019-01-20T11:28:20.640Z,4.70
2019-01-20T11:30:48.707Z,3.55
2019-01-20T11:33:16.686Z,3.75
2019-01-20T11:35:44.627Z,4.53
2019-01-20T11:38:14.048Z,5.47
2019-01-20T11:40:42.120Z,3.83
2019-01-20T11:43:10.198Z,3.90
2019-01-20T11:45:39.375Z,5.08
2019-01-20T11:48:07.491Z,5.83
2019-01-20T11:50:35.760Z,5.28
2019-01-20T11:53:03.913Z,6.97
2019-01-20T11:55:31.986Z,7.53
2019-01-20T11:58:00.038Z,3.20
2019-01-20T12:00:28.043Z,5.53
2019-01-20T12:02:56.101Z,3.55
2019-01-20T12:05:24.219Z,2.72
2019-01-20T12:07:52.139Z,2.70
2019-01-20T12:10:20.416Z,9.00
2019-01-20T12:12:55.685Z,6.62
2019-01-20T12:15:26.510Z,4.05
2019-01-20T12:17:54.451Z,2.50
2019-01-20T12:20:23.828Z,1.90
2019-01-20T12:22:51.835Z,2.33
2019-01-20T12:25:19.804Z,1.95
2019-01-20T12:27:48.094Z,2.02
2019-01-20T12:30:16.128Z,2.12
2019-01-20T12:32:44.327Z,2.10
2019-01-20T12:35:12.499Z,1.70
2019-01-20T12:37:40.778Z,1.70
2019-01-20T12:40:09.177Z,1.62
2019-01-20T12:42:37.589Z,4.72
2019-01-20T12:45:05.669Z,2.33
2019-01-20T12:47:33.877Z,2.10
2019-01-20T12:50:01.959Z,2.27
2019-01-20T12:52:31.485Z,3.95
2019-01-20T12:54:59.422Z,2.30
2019-01-20T12:57:28.120Z,4.05
2019-01-20T12:59:56.294Z,2.02
2019-01-20T13:02:24.248Z,4.45
2019-01-20T13:04:56.354Z,4.22
2019-01-20T13:07:22.111Z,3.70
2019-01-20T13:09:50.323Z,6.17
2019-01-20T13:12:18.372Z,5.42
2019-01-20T13:14:46.463Z,9.15
2019-01-20T13:17:15.901Z,5.70
2019-01-20T13:19:43.924Z,4.17
2019-01-20T13:22:12.216Z,4.45
2019-01-20T13:24:40.279Z,6.42
2019-01-20T13:27:08.462Z,5.58
2019-01-20T13:29:36.643Z,4.90
2019-01-20T13:32:04.820Z,8.90
2019-01-20T13:34:32.988Z,4.75
2019-01-20T13:37:01.463Z,7.25
2019-01-20T13:39:29.622Z,5.42
2019-01-20T13:41:57.617Z,8.28
2019-01-20T13:44:25.785Z,6.22
2019-01-20T13:46:53.895Z,5.87
2019-01-20T13:49:22.747Z,7.42
2019-01-20T13:51:51.131Z,7.83
2019-01-20T13:54:19.188Z,8.00
2019-01-20T13:56:47.371Z,8.65
2019-01-20T13:59:15.545Z,17.98
2019-01-20T14:01:45.230Z,30.80
2019-01-20T14:04:13.355Z,11.05
2019-01-20T14:06:41.309Z,72.75
2019-01-20T14:09:09.699Z,13.48
2019-01-20T14:11:37.827Z,16.07
2019-01-20T14:14:06.023Z,10.95
2019-01-20T14:16:34.176Z,9.00
2019-01-20T14:19:02.451Z,11.25
2019-01-20T14:21:30.756Z,16.52
2019-01-20T14:23:58.711Z,9.50
2019-01-20T14:26:27.916Z,9.13
2019-01-20T14:28:56.077Z,10.93
2019-01-20T14:31:24.166Z,14.58
2019-01-20T14:33:52.648Z,8.78
2019-01-20T14:36:20.618Z,8.18
2019-01-20T14:38:48.586Z,9.03
2019-01-20T14:41:16.767Z,9.18
2019-01-20T14:43:44.836Z,8.73
2019-01-20T14:46:13.822Z,9.18
2019-01-20T14:48:41.901Z,11.33
2019-01-20T14:51:09.965Z,8.35
2019-01-20T14:53:38.020Z,10.58
2019-01-20T14:56:06.090Z,11.30
2019-01-20T14:58:34.294Z,8.75
2019-01-20T15:01:02.668Z,10.63
2019-01-20T15:03:30.844Z,8.85
2019-01-20T15:05:58.910Z,11.05
2019-01-20T15:08:26.881Z,9.33
2019-01-20T15:10:54.949Z,9.18
2019-01-20T15:13:23.123Z,8.85
2019-01-20T15:15:51.709Z,11.08
2019-01-20T15:18:20.720Z,9.35
2019-01-20T15:20:50.703Z,10.82
2019-01-20T15:23:18.360Z,8.88
2019-01-20T15:25:46.457Z,8.90
2019-01-20T15:28:15.321Z,9.28
2019-01-20T15:30:43.724Z,9.10
2019-01-20T15:33:11.693Z,7.22
2019-01-20T15:35:39.663Z,9.83
2019-01-20T15:38:07.631Z,11.35
2019-01-20T15:40:35.601Z,9.30
2019-01-20T15:43:05.207Z,13.35
2019-01-20T15:45:33.362Z,9.98
2019-01-20T15:48:01.459Z,10.25
2019-01-20T15:50:29.627Z,9.05
2019-01-20T15:52:57.702Z,8.63
2019-01-20T15:55:25.874Z,9.95
2019-01-20T15:57:55.953Z,9.45
2019-01-20T16:00:24.375Z,13.58
2019-01-20T16:02:52.419Z,10.40
2019-01-20T16:05:20.620Z,17.15
2019-01-20T16:07:48.572Z,13.68
2019-01-20T16:10:16.664Z,14.00
2019-01-20T16:12:44.731Z,10.08
2019-01-20T16:15:12.802Z,10.05
2019-01-20T16:17:40.877Z,13.53
2019-01-20T16:20:08.848Z,15.88
2019-01-20T16:22:38.477Z,14.58
2019-01-20T16:25:06.525Z,12.63
2019-01-20T16:27:35.138Z,10.53
2019-01-20T16:30:03.382Z,11.83
2019-01-20T16:32:34.407Z,8.65
2019-01-20T16:35:02.497Z,10.30
2019-01-20T16:37:38.733Z,9.98
2019-01-20T16:40:06.730Z,9.25
2019-01-20T16:42:34.806Z,8.78
2019-01-20T16:45:04.000Z,10.23
2019-01-20T16:47:34.428Z,13.65
2019-01-20T16:50:02.601Z,13.70
2019-01-20T16:52:30.752Z,19.30
2019-01-20T16:54:58.733Z,18.87
2019-01-20T16:57:26.712Z,13.18
2019-01-20T16:59:54.684Z,12.03
2019-01-20T17:02:22.651Z,8.85
2019-01-20T17:04:50.726Z,14.33
2019-01-20T17:07:18.999Z,9.60
2019-01-20T17:09:47.154Z,9.93
2019-01-20T17:12:15.150Z,12.40
2019-01-20T17:14:45.044Z,8.95
2019-01-20T17:17:13.109Z,7.97
2019-01-20T17:19:41.102Z,10.10
2019-01-20T17:22:09.582Z,12.95
2019-01-20T17:24:37.758Z,8.60
2019-01-20T17:27:05.911Z,7.92
2019-01-20T17:29:34.106Z,9.98
2019-01-20T17:32:03.563Z,12.18
2019-01-20T17:34:31.887Z,12.10
2019-01-20T17:37:00.037Z,11.57
2019-01-20T17:39:28.003Z,15.90
2019-01-20T17:41:56.103Z,14.23
2019-01-20T17:44:24.074Z,11.40
2019-01-20T17:46:52.018Z,12.65
2019-01-20T17:49:20.004Z,14.28
2019-01-20T17:51:48.083Z,12.55
2019-01-20T17:54:16.053Z,14.15
2019-01-20T17:56:44.095Z,13.58
2019-01-20T17:59:12.214Z,15.83
2019-01-20T18:01:40.299Z,14.05
2019-01-20T18:04:08.339Z,13.48
2019-01-20T18:06:36.382Z,12.33
2019-01-20T18:09:05.795Z,13.53
2019-01-20T18:11:33.786Z,12.85
2019-01-20T18:14:03.390Z,13.25
2019-01-20T18:16:31.565Z,13.30
2019-01-20T18:19:02.548Z,13.65
2019-01-20T18:21:33.835Z,14.05
2019-01-20T18:24:01.691Z,11.28
2019-01-20T18:26:29.688Z,12.33
2019-01-20T18:28:57.761Z,12.82
2019-01-20T18:31:27.055Z,11.10
2019-01-20T18:33:55.114Z,14.23
2019-01-20T18:36:23.409Z,11.88
2019-01-20T18:38:51.354Z,10.55
2019-01-20T18:41:19.323Z,11.60
2019-01-20T18:43:47.288Z,11.15
2019-01-20T18:46:15.270Z,13.65
2019-01-20T18:48:45.552Z,16.12
2019-01-20T18:51:13.553Z,15.88
2019-01-20T18:53:42.502Z,21.00
2019-01-20T18:56:10.747Z,37.40
2019-01-20T18:58:38.726Z,42.65
2019-01-20T19:01:06.791Z,24.85
2019-01-20T19:03:34.769Z,20.55
2019-01-20T19:06:02.731Z,15.65
2019-01-20T19:08:30.677Z,13.15
2019-01-20T19:10:59.774Z,9.58
2019-01-20T19:13:29.061Z,10.00
2019-01-20T19:15:57.148Z,8.28
2019-01-20T19:18:25.320Z,9.00
2019-01-20T19:20:53.315Z,10.05
2019-01-20T19:23:23.143Z,8.18
2019-01-20T19:25:52.152Z,8.80
2019-01-20T19:28:20.468Z,8.85
2019-01-20T19:30:48.566Z,11.85
2019-01-20T19:33:16.970Z,12.35
2019-01-20T19:35:45.015Z,18.12
2019-01-20T19:38:14.167Z,9.70
2019-01-20T19:40:42.268Z,8.40
2019-01-20T19:43:12.099Z,9.90
2019-01-20T19:45:40.039Z,8.63
2019-01-20T19:48:15.675Z,10.08
2019-01-20T19:50:39.732Z,10.75
2019-01-20T19:53:07.798Z,9.65
2019-01-20T19:55:40.631Z,8.55
2019-01-20T19:58:08.621Z,10.65
2019-01-20T20:00:36.691Z,8.38
2019-01-20T20:03:06.797Z,8.50
2019-01-20T20:05:34.455Z,7.67
2019-01-20T20:08:02.441Z,7.53
2019-01-20T20:10:32.225Z,8.70
2019-01-20T20:13:00.326Z,8.63
2019-01-20T20:15:28.301Z,8.78
2019-01-20T20:17:56.549Z,11.75
2019-01-20T20:20:24.542Z,8.68
2019-01-20T20:22:52.518Z,11.83
2019-01-20T20:25:21.402Z,11.50
2019-01-20T20:27:49.672Z,9.70
2019-01-20T20:30:17.655Z,10.48
2019-01-20T20:32:45.702Z,9.35
2019-01-20T20:35:13.819Z,10.63
2019-01-20T20:37:42.171Z,9.05
2019-01-20T20:40:11.965Z,8.98
2019-01-20T20:42:41.489Z,8.00
2019-01-20T20:45:09.695Z,8.73
2019-01-20T20:47:40.602Z,9.35
2019-01-20T20:50:08.777Z,12.05
2019-01-20T20:52:45.728Z,38.40
2019-01-20T20:55:08.897Z,22.25
2019-01-20T20:57:41.989Z,11.25
2019-01-20T21:00:10.282Z,11.10
2019-01-20T21:02:38.357Z,10.28
2019-01-20T21:05:06.374Z,17.27
2019-01-20T21:07:37.362Z,15.08
2019-01-20T21:10:05.538Z,9.90
2019-01-20T21:12:33.610Z,11.50
2019-01-20T21:15:03.338Z,11.60
2019-01-20T21:17:31.261Z,10.90
2019-01-20T21:19:59.360Z,10.82
2019-01-20T21:22:27.437Z,9.73
2019-01-20T21:24:55.502Z,12.75
2019-01-20T21:27:23.677Z,13.60
2019-01-20T21:29:52.086Z,11.20
2019-01-20T21:32:20.127Z,12.10
2019-01-20T21:34:48.281Z,13.05
2019-01-20T21:37:16.275Z,14.05
2019-01-20T21:39:44.219Z,12.13
2019-01-20T21:42:12.521Z,13.35
2019-01-20T21:44:40.694Z,11.65
2019-01-20T21:47:08.762Z,14.00
2019-01-20T21:49:37.019Z,14.87
2019-01-20T21:52:05.009Z,13.05
2019-01-20T21:54:32.997Z,15.00
2019-01-20T21:57:01.233Z,14.90
2019-01-20T21:59:29.433Z,12.18
2019-01-20T22:02:01.087Z,13.58
2019-01-20T22:04:29.348Z,16.40
2019-01-20T22:06:57.637Z,14.20
2019-01-20T22:09:25.918Z,16.93
2019-01-20T22:11:55.639Z,15.63
2019-01-20T22:14:23.672Z,14.55
2019-01-20T22:16:52.960Z,15.70
2019-01-20T22:19:21.277Z,15.03
2019-01-20T22:21:49.449Z,17.77
2019-01-20T22:24:17.521Z,15.32
2019-01-20T22:26:45.567Z,15.15
2019-01-20T22:29:13.663Z,17.00
2019-01-20T22:31:41.710Z,13.53
2019-01-20T22:34:09.677Z,12.25
2019-01-20T22:36:37.778Z,13.53
2019-01-20T22:39:05.827Z,13.32
2019-01-20T22:41:35.749Z,11.57
2019-01-20T22:44:03.434Z,12.55
2019-01-20T22:46:33.407Z,11.28
2019-01-20T22:49:01.110Z,12.05
2019-01-20T22:51:29.179Z,12.98
2019-01-20T22:53:59.096Z,13.50
2019-01-20T22:56:27.066Z,13.88
2019-01-20T22:58:55.237Z,15.65
2019-01-20T23:01:23.238Z,15.28
2019-01-20T23:03:51.765Z,16.50
2019-01-20T23:06:19.866Z,13.25
2019-01-20T23:08:47.914Z,13.65
2019-01-20T23:11:15.902Z,20.92
2019-01-20T23:13:43.855Z,33.02
2019-01-20T23:16:12.982Z,40.98
2019-01-20T23:18:40.935Z,20.80
2019-01-20T23:21:08.891Z,15.90
2019-01-20T23:23:36.876Z,18.67
2019-01-20T23:26:04.846Z,12.45
2019-01-20T23:28:32.813Z,16.55
2019-01-20T23:31:00.962Z,18.20
2019-01-20T23:33:29.163Z,16.52
2019-01-20T23:35:57.135Z,13.32
2019-01-20T23:38:25.482Z,13.30
2019-01-20T23:40:53.479Z,14.05
2019-01-20T23:43:21.448Z,18.30
2019-01-20T23:45:49.414Z,13.28
2019-01-20T23:48:17.492Z,15.20
2019-01-20T23:50:46.429Z,13.68
2019-01-20T23:53:14.453Z,10.50
2019-01-20T23:55:42.398Z,11.08
2019-01-20T23:58:10.371Z,16.97
